Time;durP1;ratioP1;P1;durP2;ratioP2;P2;SDS_P1;SDS_P2;PMS_P1;PMS_P2;Temp;Humidity;BMP_temperature;BMP_pressure;BME280_temperature;BME280_humidity;BME280_pressure;Samples;Min_cycle;Max_cycle;Signal;HPM_P1;HPM_P2
2021/05/29 00:02:03;;;;;;;20.40;8.43;;;9.80;99.90;;;;;;5135398;27;20176;-60
2021/05/29 00:04:29;;;;;;;28.20;9.25;;;9.80;99.90;;;;;;5135896;27;20545;-60
2021/05/29 00:06:56;;;;;;;25.85;9.35;;;9.70;99.90;;;;;;5135585;27;20172;-60
2021/05/29 00:09:22;;;;;;;21.20;8.85;;;9.70;99.90;;;;;;5130241;27;20641;-59
2021/05/29 00:11:48;;;;;;;37.13;9.35;;;9.70;99.90;;;;;;5134122;27;20171;-60
2021/05/29 00:14:14;;;;;;;23.13;8.65;;;9.80;99.90;;;;;;5133319;27;20507;-60
2021/05/29 00:16:40;;;;;;;25.52;8.85;;;9.80;99.90;;;;;;5133703;27;20182;-59
2021/05/29 00:19:07;;;;;;;17.33;7.93;;;9.90;99.90;;;;;;5115150;27;20171;-60
2021/05/29 00:21:33;;;;;;;25.30;8.50;;;9.90;99.90;;;;;;5130867;27;20180;-60
2021/05/29 00:23:59;;;;;;;28.30;9.80;;;9.90;99.90;;;;;;5133017;27;20182;-60
2021/05/29 00:26:25;;;;;;;25.35;9.15;;;9.90;99.90;;;;;;5134636;27;20194;-60
2021/05/29 00:28:51;;;;;;;19.73;9.05;;;9.90;99.90;;;;;;5133765;27;20183;-60
2021/05/29 00:31:19;;;;;;;20.70;9.20;;;9.90;99.90;;;;;;5134319;27;20579;-59
2021/05/29 00:33:45;;;;;;;26.65;10.75;;;9.90;99.90;;;;;;5135071;27;20208;-60
2021/05/29 00:36:11;;;;;;;18.52;9.10;;;9.90;99.90;;;;;;5135230;27;20171;-60
2021/05/29 00:38:37;;;;;;;31.65;8.60;;;9.90;99.90;;;;;;5135390;27;20179;-59
2021/05/29 00:41:09;;;;;;;22.95;7.72;;;9.90;99.90;;;;;;5134771;27;20180;-59
2021/05/29 00:43:36;;;;;;;21.45;7.75;;;9.90;99.90;;;;;;5115931;27;20645;-60
2021/05/29 00:46:03;;;;;;;26.02;8.88;;;9.90;99.90;;;;;;5134687;27;20168;-60
2021/05/29 00:48:29;;;;;;;30.52;9.20;;;10.00;99.90;;;;;;5116725;27;20172;-60
2021/05/29 00:51:01;;;;;;;26.80;8.65;;;10.00;99.90;;;;;;5134467;27;20198;-59
2021/05/29 00:53:28;;;;;;;27.25;8.20;;;10.00;99.90;;;;;;5134689;27;20164;-59
2021/05/29 00:55:55;;;;;;;22.23;8.55;;;10.00;99.90;;;;;;5134084;27;20199;-58
2021/05/29 00:58:21;;;;;;;22.88;7.93;;;9.90;99.90;;;;;;5134270;27;20176;-59
2021/05/29 01:00:48;;;;;;;23.38;7.78;;;9.90;99.90;;;;;;5134764;27;20164;-59
2021/05/29 01:03:15;;;;;;;27.00;8.57;;;10.00;99.90;;;;;;5135375;27;20179;-60
2021/05/29 01:05:42;;;;;;;23.30;8.38;;;10.00;99.90;;;;;;5134520;27;20180;-59
2021/05/29 01:08:08;;;;;;;20.25;7.63;;;10.00;99.90;;;;;;5116191;27;20187;-60
2021/05/29 01:10:34;;;;;;;19.13;8.15;;;10.00;99.90;;;;;;5132960;27;20694;-60
2021/05/29 01:13:02;;;;;;;22.63;7.30;;;10.00;99.90;;;;;;5134102;27;20632;-60
2021/05/29 01:15:36;;;;;;;17.55;6.85;;;10.00;99.90;;;;;;5133850;27;20651;-59
2021/05/29 01:18:04;;;;;;;27.73;7.50;;;10.00;99.90;;;;;;5133781;27;20192;-60
2021/05/29 01:20:30;;;;;;;21.65;7.53;;;10.00;99.90;;;;;;5098185;27;20198;-60
2021/05/29 01:22:57;;;;;;;25.20;8.40;;;9.90;99.90;;;;;;5115141;27;20180;-59
2021/05/29 01:25:37;;;;;;;34.92;10.10;;;9.90;99.90;;;;;;5134489;27;20180;-59
2021/05/29 01:28:11;;;;;;;24.65;8.05;;;9.80;99.90;;;;;;5133248;27;20164;-59
2021/05/29 01:30:48;;;;;;;26.33;7.93;;;9.80;99.90;;;;;;5134174;27;20187;-59
2021/05/29 01:33:16;;;;;;;21.63;8.68;;;9.80;99.90;;;;;;5115548;27;20190;-59
2021/05/29 01:35:42;;;;;;;25.00;8.32;;;9.80;99.90;;;;;;5134141;27;20238;-59
2021/05/29 01:38:08;;;;;;;29.73;8.48;;;9.80;99.90;;;;;;5133445;27;20176;-59
2021/05/29 01:40:34;;;;;;;22.98;7.75;;;9.80;99.90;;;;;;5115051;27;20533;-59
2021/05/29 01:43:02;;;;;;;31.25;8.38;;;9.80;99.90;;;;;;5133010;27;20172;-59
2021/05/29 01:45:29;;;;;;;23.15;7.57;;;9.90;99.90;;;;;;5115504;27;20172;-59
2021/05/29 01:47:55;;;;;;;22.63;7.90;;;9.80;99.90;;;;;;5114317;27;20184;-60
2021/05/29 01:50:21;;;;;;;24.80;7.68;;;9.80;99.90;;;;;;5133018;27;20234;-59
2021/05/29 01:52:48;;;;;;;20.23;7.35;;;9.80;99.90;;;;;;5133819;27;20183;-60
2021/05/29 01:55:15;;;;;;;26.38;8.90;;;9.90;99.90;;;;;;5114996;27;20532;-59
2021/05/29 01:57:41;;;;;;;30.20;8.95;;;9.80;99.90;;;;;;5133143;27;20208;-60
2021/05/29 02:00:08;;;;;;;23.65;9.70;;;9.80;99.90;;;;;;5132561;27;20180;-60
2021/05/29 02:02:34;;;;;;;24.50;9.02;;;9.70;99.90;;;;;;5115416;27;20527;-60
2021/05/29 02:05:12;;;;;;;19.92;8.13;;;9.70;99.90;;;;;;5133124;27;20203;-59
2021/05/29 02:07:38;;;;;;;23.25;8.23;;;9.80;99.90;;;;;;5133625;27;20229;-59
2021/05/29 02:10:04;;;;;;;27.45;8.82;;;9.80;99.90;;;;;;5132194;27;20226;-59
2021/05/29 02:12:46;;;;;;;26.13;9.00;;;9.80;99.90;;;;;;5133237;27;20533;-59
2021/05/29 02:15:14;;;;;;;28.33;8.15;;;9.80;99.90;;;;;;5132649;27;20175;-60
2021/05/29 02:17:41;;;;;;;26.88;8.80;;;9.80;99.90;;;;;;5133199;27;20526;-60
2021/05/29 02:20:08;;;;;;;28.92;9.73;;;9.90;99.90;;;;;;5133221;27;20628;-60
2021/05/29 02:22:34;;;;;;;28.48;10.10;;;9.90;99.90;;;;;;5133142;27;20183;-59
2021/05/29 02:25:01;;;;;;;21.58;9.75;;;9.90;99.90;;;;;;5132925;27;20175;-59
2021/05/29 02:27:27;;;;;;;30.98;9.40;;;9.80;99.90;;;;;;5132468;27;20180;-60
2021/05/29 02:29:53;;;;;;;29.02;10.23;;;9.80;99.90;;;;;;5133088;27;20188;-59
2021/05/29 02:32:19;;;;;;;25.25;10.27;;;9.90;99.90;;;;;;5132144;27;20187;-59
2021/05/29 02:34:45;;;;;;;28.33;9.63;;;9.90;99.90;;;;;;5131945;27;20683;-60
2021/05/29 02:37:11;;;;;;;31.15;8.70;;;9.80;99.90;;;;;;5132388;28;20206;-60
2021/05/29 02:39:37;;;;;;;31.88;9.77;;;9.80;99.90;;;;;;5132828;28;20184;-60
2021/05/29 02:42:04;;;;;;;35.53;9.95;;;9.90;99.90;;;;;;5113792;28;20666;-59
2021/05/29 02:44:30;;;;;;;26.42;9.07;;;9.90;99.90;;;;;;5132871;28;20171;-59
2021/05/29 02:46:56;;;;;;;24.77;9.05;;;9.90;99.90;;;;;;5132815;28;20558;-60
2021/05/29 02:49:22;;;;;;;28.15;11.23;;;9.90;99.90;;;;;;5114419;28;20172;-59
2021/05/29 02:51:48;;;;;;;24.63;9.63;;;9.90;99.90;;;;;;5132994;28;20534;-60
2021/05/29 02:54:14;;;;;;;28.00;9.40;;;9.80;99.90;;;;;;5131852;28;20187;-60
2021/05/29 02:56:40;;;;;;;22.02;9.73;;;9.70;99.90;;;;;;5133076;28;20198;-60
2021/05/29 02:59:06;;;;;;;20.58;8.38;;;9.60;99.90;;;;;;5132699;28;20636;-60
2021/05/29 03:01:32;;;;;;;26.42;8.20;;;9.60;99.90;;;;;;5132800;28;20191;-59
2021/05/29 03:03:58;;;;;;;22.35;8.73;;;9.70;99.90;;;;;;5132944;28;20636;-59
2021/05/29 03:06:25;;;;;;;21.20;8.10;;;9.70;99.90;;;;;;5133077;28;20176;-59
2021/05/29 03:08:51;;;;;;;30.55;9.88;;;9.80;99.90;;;;;;5132647;28;20187;-60
2021/05/29 03:11:17;;;;;;;17.10;8.52;;;9.80;99.90;;;;;;5132729;28;20211;-60
2021/05/29 03:13:44;;;;;;;21.08;7.90;;;9.80;99.90;;;;;;5131787;28;20199;-59
2021/05/29 03:16:10;;;;;;;23.90;8.50;;;9.80;99.90;;;;;;5132420;28;20168;-60
2021/05/29 03:18:36;;;;;;;25.90;9.55;;;9.70;99.90;;;;;;5132786;28;20237;-60
2021/05/29 03:21:02;;;;;;;21.58;9.25;;;9.70;99.90;;;;;;5132403;28;20184;-60
2021/05/29 03:23:28;;;;;;;21.60;8.80;;;9.70;99.90;;;;;;5132680;28;20643;-59
2021/05/29 03:25:54;;;;;;;38.10;10.38;;;9.70;99.90;;;;;;5132788;28;20184;-59
2021/05/29 03:28:20;;;;;;;21.20;9.50;;;9.70;99.90;;;;;;5132285;28;20176;-59
2021/05/29 03:30:47;;;;;;;33.15;9.95;;;9.70;99.90;;;;;;5132212;28;20204;-59
2021/05/29 03:33:13;;;;;;;31.20;10.57;;;9.80;99.90;;;;;;5113404;28;20530;-60
2021/05/29 03:35:40;;;;;;;24.80;10.38;;;9.70;99.90;;;;;;5132405;28;20183;-60
2021/05/29 03:38:06;;;;;;;38.15;11.80;;;9.60;99.90;;;;;;5132379;28;20624;-60
2021/05/29 03:40:33;;;;;;;28.88;10.95;;;9.70;99.90;;;;;;5113800;28;20192;-60
2021/05/29 03:42:59;;;;;;;33.00;10.07;;;9.70;99.90;;;;;;5132960;27;20176;-60
2021/05/29 03:45:25;;;;;;;31.52;10.70;;;9.70;99.90;;;;;;5117277;27;20186;-59
2021/05/29 03:47:51;;;;;;;24.98;10.05;;;9.70;99.90;;;;;;5135781;27;20187;-59
2021/05/29 03:50:20;;;;;;;28.73;9.57;;;9.70;99.90;;;;;;5135263;27;20204;-60
2021/05/29 03:52:46;;;;;;;30.77;8.95;;;9.60;99.90;;;;;;5136387;27;20625;-60
2021/05/29 03:55:13;;;;;;;27.63;8.95;;;9.50;99.90;;;;;;5117154;27;20202;-60
2021/05/29 03:57:39;;;;;;;29.65;9.65;;;9.50;99.90;;;;;;5135701;27;20536;-60
2021/05/29 04:00:07;;;;;;;37.63;9.90;;;9.50;99.90;;;;;;5135918;27;20180;-60
2021/05/29 04:02:33;;;;;;;31.58;9.93;;;9.50;99.90;;;;;;5134991;27;20196;-59
2021/05/29 04:04:59;;;;;;;26.70;10.00;;;9.50;99.90;;;;;;5136027;27;20172;-60
2021/05/29 04:07:25;;;;;;;30.70;9.65;;;9.60;99.90;;;;;;5135676;27;20190;-60
2021/05/29 04:09:51;;;;;;;28.00;10.70;;;9.60;99.90;;;;;;5134849;27;20203;-60
2021/05/29 04:12:17;;;;;;;27.10;9.52;;;9.60;99.90;;;;;;5135054;27;20211;-59
2021/05/29 04:14:43;;;;;;;33.90;10.30;;;9.60;99.90;;;;;;5134856;27;20176;-60
2021/05/29 04:17:12;;;;;;;41.78;11.10;;;9.60;99.90;;;;;;5134819;27;20188;-60
2021/05/29 04:19:38;;;;;;;35.78;10.15;;;9.70;99.90;;;;;;5135521;27;20167;-60
2021/05/29 04:22:04;;;;;;;35.55;10.73;;;9.70;99.90;;;;;;5135273;27;20194;-60
2021/05/29 04:24:30;;;;;;;30.65;10.55;;;9.70;99.90;;;;;;5117034;27;20635;-60
2021/05/29 04:26:56;;;;;;;36.80;10.55;;;9.80;99.90;;;;;;5135219;27;20181;-60
2021/05/29 04:29:22;;;;;;;32.45;11.23;;;9.80;99.90;;;;;;5135104;27;20184;-60
2021/05/29 04:31:48;;;;;;;33.83;10.73;;;9.80;99.90;;;;;;5135503;27;20207;-59
2021/05/29 04:34:14;;;;;;;36.58;10.23;;;9.90;99.90;;;;;;5134709;27;20223;-60
2021/05/29 04:36:42;;;;;;;30.00;10.43;;;9.90;99.90;;;;;;5116926;27;20317;-59
2021/05/29 04:39:08;;;;;;;28.38;10.55;;;9.80;99.90;;;;;;5135110;27;20180;-60
2021/05/29 04:41:34;;;;;;;33.13;10.38;;;9.80;99.90;;;;;;5134152;27;20175;-60
2021/05/29 04:44:00;;;;;;;22.02;9.73;;;9.70;99.90;;;;;;5134747;27;20172;-59
2021/05/29 04:46:27;;;;;;;40.15;11.13;;;9.70;99.90;;;;;;5134105;27;20191;-60
2021/05/29 04:48:53;;;;;;;28.55;10.93;;;9.70;99.90;;;;;;5135221;27;20179;-59
2021/05/29 04:51:19;;;;;;;30.30;10.77;;;9.80;99.90;;;;;;5132699;27;20215;-59
2021/05/29 04:53:46;;;;;;;30.00;11.80;;;9.80;99.90;;;;;;5134133;27;20184;-59
2021/05/29 04:56:13;;;;;;;27.02;10.23;;;9.90;99.90;;;;;;5132754;27;20547;-60
2021/05/29 04:58:39;;;;;;;27.25;10.38;;;9.90;99.90;;;;;;5134822;27;20180;-60
2021/05/29 05:01:06;;;;;;;30.02;10.38;;;10.00;99.90;;;;;;5134696;27;20180;-60
2021/05/29 05:03:32;;;;;;;34.13;10.52;;;10.00;99.90;;;;;;5134591;27;20172;-59
2021/05/29 05:05:59;;;;;;;28.17;10.23;;;10.10;99.90;;;;;;5134560;27;20180;-60
2021/05/29 05:08:25;;;;;;;29.73;11.00;;;10.10;99.90;;;;;;5116168;27;20175;-60
2021/05/29 05:10:52;;;;;;;26.90;9.43;;;10.00;99.90;;;;;;5115768;27;20226;-60
2021/05/29 05:13:18;;;;;;;21.88;9.15;;;10.00;99.90;;;;;;5134016;27;20628;-60
2021/05/29 05:15:45;;;;;;;21.85;8.93;;;10.10;99.90;;;;;;5134264;27;20188;-60
2021/05/29 05:18:11;;;;;;;24.58;9.13;;;10.10;99.90;;;;;;5134406;27;20539;-60
2021/05/29 05:20:37;;;;;;;30.45;10.57;;;10.10;99.90;;;;;;5132972;27;20195;-60
2021/05/29 05:23:03;;;;;;;21.25;8.98;;;10.10;99.90;;;;;;5115492;27;20180;-60
2021/05/29 05:25:30;;;;;;;28.58;8.95;;;10.00;99.90;;;;;;5134240;27;20176;-60
2021/05/29 05:27:56;;;;;;;25.20;8.70;;;10.10;99.90;;;;;;5134279;27;20238;-60
2021/05/29 05:30:22;;;;;;;27.20;9.40;;;10.00;99.90;;;;;;5132458;27;20179;-60
2021/05/29 05:32:48;;;;;;;32.17;10.32;;;9.90;99.90;;;;;;5133809;27;20191;-59
2021/05/29 05:35:16;;;;;;;27.73;9.25;;;10.00;99.90;;;;;;5132456;27;20207;-60
2021/05/29 05:37:42;;;;;;;20.35;9.68;;;10.00;99.90;;;;;;5114617;27;20195;-59
2021/05/29 05:40:09;;;;;;;22.83;9.02;;;10.00;99.90;;;;;;5133019;27;20552;-59
2021/05/29 05:42:35;;;;;;;25.45;9.95;;;10.00;99.90;;;;;;5133650;27;20640;-59
2021/05/29 05:45:06;;;;;;;19.38;9.30;;;10.00;99.90;;;;;;5111252;27;20207;-60
2021/05/29 05:47:32;;;;;;;20.13;8.02;;;10.10;99.90;;;;;;5133497;27;20190;-60
2021/05/29 05:49:58;;;;;;;18.92;8.00;;;10.10;99.90;;;;;;5114592;27;20180;-61
2021/05/29 05:52:24;;;;;;;18.13;7.50;;;10.10;99.90;;;;;;5135745;27;20215;-60
2021/05/29 05:54:50;;;;;;;24.42;9.10;;;10.20;99.90;;;;;;5133615;27;20169;-60
2021/05/29 05:57:16;;;;;;;18.27;8.50;;;10.20;99.90;;;;;;5132863;27;20563;-60
2021/05/29 05:59:42;;;;;;;19.70;8.40;;;10.20;99.90;;;;;;5114352;27;20187;-59
2021/05/29 06:02:08;;;;;;;14.95;8.38;;;10.20;99.90;;;;;;5133258;27;20183;-60
2021/05/29 06:04:35;;;;;;;15.65;8.02;;;10.20;99.90;;;;;;5132263;27;20190;-59
2021/05/29 06:07:01;;;;;;;19.90;7.80;;;10.10;99.90;;;;;;5132797;27;20186;-59
2021/05/29 06:09:28;;;;;;;17.40;7.57;;;10.10;99.90;;;;;;5132992;27;20187;-59
2021/05/29 06:11:54;;;;;;;19.20;7.90;;;10.10;99.90;;;;;;5114450;27;20199;-60
2021/05/29 06:19:49;;;;;;;18.05;8.82;;;10.20;99.90;;;;;;5139662;27;20163;-60
2021/05/29 06:22:15;;;;;;;15.65;7.50;;;10.20;99.90;;;;;;5133310;27;20192;-60
2021/05/29 06:24:42;;;;;;;13.90;7.28;;;10.30;99.90;;;;;;5132627;27;20628;-60
2021/05/29 06:27:08;;;;;;;16.98;7.82;;;10.30;99.90;;;;;;5138932;27;20175;-59
2021/05/29 06:29:34;;;;;;;12.43;6.72;;;10.30;99.90;;;;;;5119656;27;20537;-59
2021/05/29 06:32:00;;;;;;;12.25;6.45;;;10.20;99.90;;;;;;5119651;27;20199;-60
2021/05/29 06:34:26;;;;;;;12.35;7.22;;;10.20;99.90;;;;;;5138301;27;20233;-59
2021/05/29 06:36:52;;;;;;;15.98;6.50;;;10.20;99.90;;;;;;5133594;27;20183;-59
2021/05/29 06:39:18;;;;;;;12.35;7.20;;;10.10;99.90;;;;;;5133541;28;20164;-59
2021/05/29 06:41:44;;;;;;;14.02;7.05;;;10.20;99.90;;;;;;5133173;28;20538;-60
2021/05/29 06:44:11;;;;;;;11.50;7.13;;;10.20;99.90;;;;;;5133316;28;20186;-59
2021/05/29 06:46:38;;;;;;;15.80;7.65;;;10.30;99.90;;;;;;5133093;28;20179;-60
2021/05/29 06:49:04;;;;;;;11.68;6.85;;;10.40;99.90;;;;;;5131547;28;20167;-60
2021/05/29 06:51:42;;;;;;;15.82;7.45;;;10.40;99.90;;;;;;5132335;28;20216;-60
2021/05/29 06:54:15;;;;;;;13.60;7.80;;;10.40;99.90;;;;;;5131228;28;20190;-60
2021/05/29 06:59:26;;;;;;;14.88;7.57;;;10.70;99.90;;;;;;5139602;27;20183;-60
2021/05/29 07:01:52;;;;;;;11.45;7.03;;;10.70;99.90;;;;;;5132294;28;20183;-59
2021/05/29 07:04:18;;;;;;;10.13;6.70;;;10.90;99.90;;;;;;5114088;28;20180;-60
2021/05/29 07:06:45;;;;;;;9.13;6.55;;;10.90;99.90;;;;;;5133253;28;20164;-59
2021/05/29 07:09:12;;;;;;;10.05;6.10;;;10.90;99.90;;;;;;5132070;28;20176;-60
2021/05/29 07:11:40;;;;;;;9.70;6.20;;;11.00;99.90;;;;;;5133051;28;20529;-60
2021/05/29 07:14:06;;;;;;;7.70;5.05;;;11.10;99.90;;;;;;5132868;28;20168;-59
2021/05/29 07:16:35;;;;;;;7.10;5.32;;;11.00;99.90;;;;;;5132209;27;20194;-60
2021/05/29 07:19:02;;;;;;;12.20;6.80;;;10.90;99.90;;;;;;5137613;27;20180;-59
2021/05/29 07:21:28;;;;;;;7.03;5.50;;;11.00;99.90;;;;;;5131130;27;20175;-59
2021/05/29 07:23:54;;;;;;;9.32;6.22;;;11.20;99.90;;;;;;5136293;27;20172;-59
2021/05/29 07:26:20;;;;;;;9.40;5.50;;;11.30;99.90;;;;;;5136514;27;20183;-60
2021/05/29 07:28:46;;;;;;;10.20;6.50;;;11.40;99.90;;;;;;5134737;27;20172;-60
2021/05/29 07:31:12;;;;;;;13.23;6.68;;;11.50;99.90;;;;;;5136864;27;20199;-59
2021/05/29 07:33:38;;;;;;;9.30;6.32;;;11.70;99.90;;;;;;5136758;27;20212;-60
2021/05/29 07:36:05;;;;;;;7.25;5.35;;;11.70;99.90;;;;;;5136546;27;20164;-59
2021/05/29 07:38:31;;;;;;;7.82;5.82;;;11.80;99.90;;;;;;5116778;27;20184;-63
2021/05/29 07:40:57;;;;;;;9.25;5.72;;;11.90;99.90;;;;;;5135920;27;20172;-64
2021/05/29 07:43:23;;;;;;;8.18;5.75;;;12.10;99.90;;;;;;5135251;27;20168;-64
2021/05/29 07:45:50;;;;;;;10.73;5.55;;;12.20;99.90;;;;;;5137520;27;20187;-64
2021/05/29 07:48:16;;;;;;;7.40;5.40;;;12.40;99.90;;;;;;5134045;27;20168;-65
2021/05/29 07:50:58;;;;;;;7.30;5.07;;;12.50;99.90;;;;;;5133915;27;20171;-65
2021/05/29 07:53:25;;;;;;;11.57;6.10;;;12.50;99.90;;;;;;5133793;27;20176;-65
2021/05/29 07:55:51;;;;;;;7.65;5.38;;;12.40;99.90;;;;;;5133637;27;20171;-64
2021/05/29 07:58:17;;;;;;;7.80;5.22;;;12.60;99.90;;;;;;5133058;27;20175;-64
2021/05/29 08:00:45;;;;;;;10.48;5.60;;;12.70;99.90;;;;;;5132847;27;20187;-64
2021/05/29 08:03:11;;;;;;;11.45;5.18;;;13.10;99.90;;;;;;5134357;27;20176;-64
2021/05/29 08:05:37;;;;;;;8.90;4.90;;;13.60;99.90;;;;;;5135488;27;20172;-65
2021/05/29 08:08:04;;;;;;;7.05;4.50;;;13.90;99.90;;;;;;5135754;27;20176;-64
2021/05/29 08:10:30;;;;;;;7.65;5.00;;;13.80;99.90;;;;;;5135616;27;20168;-63
2021/05/29 08:12:56;;;;;;;6.47;4.78;;;13.80;99.90;;;;;;5135224;27;20199;-66
2021/05/29 08:15:23;;;;;;;7.30;4.50;;;14.30;99.90;;;;;;5134635;27;20550;-63
2021/05/29 08:17:49;;;;;;;6.75;4.20;;;14.80;99.90;;;;;;5135376;27;20183;-63
2021/05/29 08:20:15;;;;;;;8.60;4.65;;;15.20;99.90;;;;;;5135499;27;20539;-70
2021/05/29 08:22:41;;;;;;;6.70;4.40;;;15.40;99.90;;;;;;5134152;27;20168;-61
2021/05/29 08:25:08;;;;;;;6.93;4.00;;;15.70;99.90;;;;;;5133607;27;20172;-61
2021/05/29 08:27:34;;;;;;;5.68;3.92;;;16.10;99.90;;;;;;5135144;27;20180;-61
2021/05/29 08:30:02;;;;;;;8.35;4.18;;;16.40;99.90;;;;;;5133359;27;20207;-60
2021/05/29 08:32:28;;;;;;;11.65;4.10;;;17.10;99.90;;;;;;5127075;27;20204;-60
2021/05/29 08:34:54;;;;;;;6.93;3.80;;;17.80;99.90;;;;;;5134904;27;20700;-60
2021/05/29 08:37:20;;;;;;;5.28;3.92;;;18.60;99.90;;;;;;5135056;27;20180;-63
2021/05/29 08:39:46;;;;;;;6.00;3.53;;;18.60;99.90;;;;;;5134594;27;20179;-65
2021/05/29 08:42:12;;;;;;;5.07;3.80;;;18.90;99.90;;;;;;5135117;27;20184;-62
2021/05/29 08:44:38;;;;;;;5.72;3.55;;;19.20;99.90;;;;;;5098541;27;20184;-67
2021/05/29 08:47:04;;;;;;;4.93;3.65;;;19.10;99.90;;;;;;5134709;27;20191;-63
2021/05/29 08:49:30;;;;;;;4.35;3.53;;;18.50;99.90;;;;;;5134429;27;20203;-62
2021/05/29 08:52:00;;;;;;;6.82;3.85;;;18.40;99.90;;;;;;5116181;27;20587;-64
2021/05/29 08:54:28;;;;;;;7.05;3.70;;;18.90;99.90;;;;;;5132303;27;20199;-64
2021/05/29 08:56:54;;;;;;;5.75;3.42;;;19.10;99.90;;;;;;5135494;27;20223;-64
2021/05/29 08:59:20;;;;;;;4.18;3.65;;;19.70;99.90;;;;;;5134270;27;20188;-64
2021/05/29 09:01:46;;;;;;;5.25;3.90;;;19.80;99.90;;;;;;5115217;27;20183;-64
2021/05/29 09:04:12;;;;;;;5.22;3.70;;;20.40;99.60;;;;;;5135121;27;20175;-65
2021/05/29 09:06:41;;;;;;;6.45;3.78;;;20.60;98.30;;;;;;5134708;27;20179;-64
2021/05/29 09:09:12;;;;;;;4.63;3.30;;;20.60;97.20;;;;;;5134025;27;20192;-64
2021/05/29 09:11:45;;;;;;;6.22;3.70;;;20.50;98.10;;;;;;5133593;27;20199;-64
2021/05/29 09:14:26;;;;;;;13.88;3.70;;;20.00;96.70;;;;;;5132707;27;20168;-63
2021/05/29 09:17:06;;;;;;;5.82;4.10;;;20.20;97.60;;;;;;5114291;27;20178;-65
2021/05/29 09:19:57;;;;;;;6.30;3.40;;;20.50;96.80;;;;;;5132452;27;20190;-63
2021/05/29 09:22:27;;;;;;;7.38;4.05;;;21.00;96.40;;;;;;5133016;27;20568;-64
2021/05/29 09:25:01;;;;;;;5.75;3.90;;;20.90;96.40;;;;;;5132411;27;20612;-64
2021/05/29 09:27:27;;;;;;;5.53;3.72;;;21.00;95.10;;;;;;5134089;27;20171;-63
2021/05/29 09:29:53;;;;;;;7.47;3.58;;;21.00;95.20;;;;;;5134420;27;20640;-65
2021/05/29 09:32:19;;;;;;;4.57;3.25;;;21.50;95.10;;;;;;5134450;27;20211;-64
2021/05/29 09:34:49;;;;;;;6.65;3.78;;;21.30;92.50;;;;;;5115270;27;20692;-65
2021/05/29 09:37:22;;;;;;;7.15;3.90;;;21.20;91.80;;;;;;5134355;27;20643;-65
2021/05/29 09:39:53;;;;;;;6.10;3.40;;;20.50;93.60;;;;;;5134307;27;20509;-66
2021/05/29 09:42:19;;;;;;;5.50;3.50;;;21.20;93.60;;;;;;5133936;27;20168;-65
2021/05/29 09:44:46;;;;;;;11.77;3.88;;;21.10;92.90;;;;;;5115656;27;20661;-64
2021/05/29 09:47:15;;;;;;;9.10;3.65;;;20.80;92.60;;;;;;5134447;27;20171;-65
2021/05/29 09:50:05;;;;;;;5.03;3.83;;;20.30;92.30;;;;;;5134129;27;20892;-64
2021/05/29 09:52:36;;;;;;;5.10;3.70;;;20.20;94.30;;;;;;5134356;27;20192;-65
2021/05/29 09:55:10;;;;;;;5.00;4.25;;;19.70;95.90;;;;;;5133921;27;20164;-65
2021/05/29 09:57:59;;;;;;;7.82;3.97;;;19.60;95.30;;;;;;5134154;27;20192;-65
2021/05/29 10:00:46;;;;;;;5.60;3.85;;;19.70;96.00;;;;;;5134309;27;20530;-64
2021/05/29 10:03:12;;;;;;;7.00;4.40;;;19.80;96.10;;;;;;5134496;27;20615;-64
2021/05/29 10:05:41;;;;;;;5.97;4.20;;;19.70;95.90;;;;;;5098911;27;20520;-63
2021/05/29 10:08:11;;;;;;;4.78;3.70;;;19.70;97.20;;;;;;5134042;27;20172;-64
2021/05/29 10:10:37;;;;;;;5.00;3.53;;;20.10;95.90;;;;;;5099581;27;20164;-64
2021/05/29 10:13:03;;;;;;;7.47;3.53;;;20.20;94.20;;;;;;5097443;27;20215;-65
2021/05/29 10:15:30;;;;;;;5.38;3.65;;;20.50;94.80;;;;;;5133598;27;20167;-63
2021/05/29 10:17:57;;;;;;;6.03;3.67;;;21.30;96.00;;;;;;5115455;28;20183;-63
2021/05/29 10:20:23;;;;;;;5.88;3.90;;;21.90;94.20;;;;;;5133917;27;20174;-64
2021/05/29 10:22:49;;;;;;;7.40;4.28;;;22.00;95.90;;;;;;5133764;27;20172;-65
2021/05/29 10:25:18;;;;;;;8.98;3.70;;;21.00;92.20;;;;;;5098992;28;20179;-63
2021/05/29 10:27:46;;;;;;;6.55;3.72;;;21.30;93.90;;;;;;5133417;27;20171;-64
2021/05/29 10:30:12;;;;;;;6.07;4.22;;;21.80;95.80;;;;;;5133044;27;20261;-63
2021/05/29 10:32:39;;;;;;;7.82;4.00;;;21.20;92.10;;;;;;5114973;28;20228;-64
2021/05/29 10:35:09;;;;;;;5.35;3.70;;;20.90;92.60;;;;;;5113493;27;20234;-65
2021/05/29 10:37:38;;;;;;;5.50;3.72;;;20.90;94.00;;;;;;5133766;27;20183;-65
2021/05/29 10:40:25;;;;;;;6.88;4.47;;;20.60;94.40;;;;;;5133489;28;20639;-65
2021/05/29 10:43:05;;;;;;;5.68;3.53;;;20.40;95.10;;;;;;5133248;28;20172;-66
2021/05/29 10:45:31;;;;;;;5.88;3.58;;;20.40;95.50;;;;;;5133340;28;20171;-64
2021/05/29 10:48:07;;;;;;;6.35;3.88;;;20.20;95.20;;;;;;5132539;28;20523;-63
2021/05/29 10:53:45;;;;;;;7.38;4.38;;;20.00;95.00;;;;;;5143777;27;20207;-63
2021/05/29 10:59:34;;;;;;;5.47;3.35;;;20.90;96.70;;;;;;5144881;27;20167;-64
2021/05/29 11:02:01;;;;;;;7.00;3.42;;;21.20;95.60;;;;;;5136765;27;20195;-65
2021/05/29 11:04:27;;;;;;;6.55;3.75;;;21.30;94.50;;;;;;5137587;27;20164;-64
2021/05/29 11:06:59;;;;;;;15.35;3.65;;;21.20;94.70;;;;;;5136738;27;20184;-65
2021/05/29 11:09:25;;;;;;;9.07;4.35;;;20.60;95.70;;;;;;5137496;27;20164;-63
2021/05/29 11:11:57;;;;;;;6.10;3.33;;;20.70;95.40;;;;;;5118250;27;20188;-64
2021/05/29 11:14:42;;;;;;;5.30;3.70;;;20.70;96.20;;;;;;5136567;27;20538;-64
2021/05/29 11:17:10;;;;;;;4.25;3.20;;;20.90;96.00;;;;;;5136929;27;20156;-63
2021/05/29 11:19:37;;;;;;;4.57;3.20;;;21.20;96.20;;;;;;5137322;27;20195;-63
2021/05/29 11:22:11;;;;;;;3.95;3.13;;;20.80;94.70;;;;;;5137074;27;20179;-64
2021/05/29 11:24:52;;;;;;;8.05;2.97;;;20.80;95.90;;;;;;5137164;27;20640;-64
2021/05/29 11:27:19;;;;;;;17.27;3.75;;;21.00;96.60;;;;;;5137073;27;20164;-63
2021/05/29 11:29:49;;;;;;;4.35;2.90;;;20.80;96.80;;;;;;5137111;27;20179;-64
2021/05/29 11:32:15;;;;;;;5.10;3.08;;;21.00;95.60;;;;;;5136172;27;20231;-64
2021/05/29 11:34:42;;;;;;;3.33;2.80;;;21.00;95.20;;;;;;5136927;27;20227;-64
2021/05/29 11:37:14;;;;;;;4.13;3.20;;;20.90;95.60;;;;;;5136766;27;20176;-64
2021/05/29 11:39:53;;;;;;;5.57;3.20;;;21.00;94.90;;;;;;5117872;27;20191;-64
2021/05/29 11:42:19;;;;;;;5.45;3.63;;;20.40;95.20;;;;;;5136772;27;20168;-64
2021/05/29 11:44:45;;;;;;;4.72;3.20;;;19.70;96.50;;;;;;5136523;27;20186;-64
2021/05/29 11:47:15;;;;;;;6.95;4.00;;;19.30;98.50;;;;;;5136423;27;20179;-64
2021/05/29 11:49:42;;;;;;;8.80;3.90;;;19.30;98.20;;;;;;5136798;27;20604;-64
2021/05/29 11:52:08;;;;;;;6.78;4.28;;;19.60;98.00;;;;;;5136278;27;20247;-64
2021/05/29 11:54:36;;;;;;;6.00;3.50;;;19.60;99.20;;;;;;5136579;27;20172;-65
2021/05/29 11:57:03;;;;;;;8.52;3.97;;;19.80;99.50;;;;;;5136230;27;20184;-63
2021/05/29 11:59:29;;;;;;;8.73;3.88;;;19.80;98.30;;;;;;5136482;27;20168;-64
2021/05/29 12:01:55;;;;;;;7.32;3.95;;;20.00;99.10;;;;;;5136225;27;20509;-64
2021/05/29 12:04:23;;;;;;;4.70;3.45;;;20.10;99.60;;;;;;5135751;27;20628;-64
2021/05/29 12:06:58;;;;;;;6.70;3.85;;;20.00;98.50;;;;;;5136441;27;20175;-65
2021/05/29 12:09:28;;;;;;;7.30;4.10;;;19.80;98.60;;;;;;5136509;27;20167;-65
2021/05/29 12:11:55;;;;;;;6.97;4.40;;;19.60;98.40;;;;;;5136049;27;20515;-64
2021/05/29 12:14:25;;;;;;;4.75;3.88;;;19.00;99.10;;;;;;5117003;27;20187;-63
2021/05/29 12:17:00;;;;;;;7.35;3.95;;;19.00;99.90;;;;;;5135980;27;20187;-63
2021/05/29 12:19:39;;;;;;;5.80;4.25;;;19.30;99.90;;;;;;5136196;27;20164;-64
2021/05/29 12:22:10;;;;;;;9.48;4.03;;;19.70;99.90;;;;;;5135793;27;20647;-63
2021/05/29 12:24:41;;;;;;;8.85;4.40;;;19.60;99.90;;;;;;5136069;27;20176;-64
2021/05/29 12:27:27;;;;;;;7.55;4.22;;;19.50;99.80;;;;;;5135811;27;20514;-64
2021/05/29 12:30:17;;;;;;;7.53;4.03;;;19.20;99.90;;;;;;5135973;27;20159;-64
2021/05/29 12:32:48;;;;;;;9.43;4.20;;;19.40;99.90;;;;;;5102338;27;20216;-66
2021/05/29 12:35:35;;;;;;;9.88;4.40;;;19.10;99.60;;;;;;5134592;27;20223;-64
2021/05/29 12:38:12;;;;;;;6.53;4.22;;;19.00;99.90;;;;;;5134822;27;20257;-64
2021/05/29 12:40:51;;;;;;;7.53;4.22;;;19.00;99.90;;;;;;5135288;27;20176;-64
2021/05/29 12:43:17;;;;;;;10.45;4.00;;;19.20;99.90;;;;;;5135538;27;20167;-66
2021/05/29 12:45:44;;;;;;;4.70;3.83;;;19.40;99.90;;;;;;5099238;27;20179;-64
2021/05/29 12:48:11;;;;;;;6.43;3.90;;;19.40;99.90;;;;;;5116512;27;20188;-64
2021/05/29 12:51:00;;;;;;;6.40;3.60;;;19.30;99.50;;;;;;5116987;27;20186;-65
2021/05/29 12:53:27;;;;;;;9.23;3.88;;;19.30;98.70;;;;;;5135635;27;20203;-63
2021/05/29 12:56:16;;;;;;;7.13;3.90;;;19.30;99.90;;;;;;5117046;27;20200;-63
2021/05/29 12:59:05;;;;;;;5.30;4.00;;;19.30;99.10;;;;;;5135083;27;20553;-65
2021/05/29 13:09:41;;;;;;;4.90;3.85;;;19.30;99.20;;;;;;5142248;27;20167;-64
2021/05/29 13:12:09;;;;;;;6.47;3.95;;;19.40;98.60;;;;;;5134793;27;20612;-63